sensor_id;sensor_type;location;lat;lon;timestamp;pressure;altitude;pressure_sealevel;temperature
76381;BMP280;65202;52.520;10.528;2023-07-31T00:00:20;100444.69;;;17.66
76381;BMP280;65202;52.520;10.528;2023-07-31T00:02:47;100442.16;;;17.65
76381;BMP280;65202;52.520;10.528;2023-07-31T00:05:15;100438.75;;;17.64
76381;BMP280;65202;52.520;10.528;2023-07-31T00:07:42;100438.00;;;17.74
76381;BMP280;65202;52.520;10.528;2023-07-31T00:10:10;100426.22;;;17.74
76381;BMP280;65202;52.520;10.528;2023-07-31T00:12:38;100434.66;;;17.75
76381;BMP280;65202;52.520;10.528;2023-07-31T00:15:07;100434.41;;;17.54
76381;BMP280;65202;52.520;10.528;2023-07-31T00:17:35;100433.66;;;17.60
76381;BMP280;65202;52.520;10.528;2023-07-31T00:20:03;100432.75;;;17.53
76381;BMP280;65202;52.520;10.528;2023-07-31T00:22:31;100416.78;;;17.62
76381;BMP280;65202;52.520;10.528;2023-07-31T00:24:58;100417.56;;;17.55
76381;BMP280;65202;52.520;10.528;2023-07-31T00:27:26;100426.91;;;17.60
76381;BMP280;65202;52.520;10.528;2023-07-31T00:29:53;100417.59;;;17.59
76381;BMP280;65202;52.520;10.528;2023-07-31T00:32:21;100403.31;;;17.63
76381;BMP280;65202;52.520;10.528;2023-07-31T00:34:48;100409.09;;;17.54
76381;BMP280;65202;52.520;10.528;2023-07-31T00:37:15;100401.47;;;17.47
76381;BMP280;65202;52.520;10.528;2023-07-31T00:39:42;100395.59;;;17.49
76381;BMP280;65202;52.520;10.528;2023-07-31T00:42:10;100391.53;;;17.66
76381;BMP280;65202;52.520;10.528;2023-07-31T00:44:37;100382.94;;;17.52
76381;BMP280;65202;52.520;10.528;2023-07-31T00:47:04;100382.13;;;17.55
76381;BMP280;65202;52.520;10.528;2023-07-31T00:49:32;100380.34;;;17.46
76381;BMP280;65202;52.520;10.528;2023-07-31T00:52:00;100374.47;;;17.49
76381;BMP280;65202;52.520;10.528;2023-07-31T00:54:29;100377.09;;;17.56
76381;BMP280;65202;52.520;10.528;2023-07-31T00:56:57;100371.94;;;17.47
76381;BMP280;65202;52.520;10.528;2023-07-31T00:59:24;100365.03;;;17.34
76381;BMP280;65202;52.520;10.528;2023-07-31T01:01:51;100358.38;;;17.42
76381;BMP280;65202;52.520;10.528;2023-07-31T01:04:19;100354.03;;;17.29
76381;BMP280;65202;52.520;10.528;2023-07-31T01:06:56;100352.22;;;17.24
76381;BMP280;65202;52.520;10.528;2023-07-31T01:09:44;100348.22;;;17.39
76381;BMP280;65202;52.520;10.528;2023-07-31T01:12:14;100359.19;;;17.40
76381;BMP280;65202;52.520;10.528;2023-07-31T01:15:02;100352.41;;;17.36
76381;BMP280;65202;52.520;10.528;2023-07-31T01:17:31;100347.47;;;17.48
76381;BMP280;65202;52.520;10.528;2023-07-31T01:20:02;100347.34;;;17.36
76381;BMP280;65202;52.520;10.528;2023-07-31T01:22:43;100350.72;;;17.38
76381;BMP280;65202;52.520;10.528;2023-07-31T01:28:58;100339.84;;;17.46
76381;BMP280;65202;52.520;10.528;2023-07-31T01:31:31;100335.66;;;17.47
76381;BMP280;65202;52.520;10.528;2023-07-31T01:34:01;100337.22;;;17.37
76381;BMP280;65202;52.520;10.528;2023-07-31T01:36:30;100334.03;;;17.53
76381;BMP280;65202;52.520;10.528;2023-07-31T01:39:01;100328.03;;;17.45
76381;BMP280;65202;52.520;10.528;2023-07-31T01:41:29;100333.78;;;17.29
76381;BMP280;65202;52.520;10.528;2023-07-31T01:43:56;100328.06;;;17.47
76381;BMP280;65202;52.520;10.528;2023-07-31T01:46:24;100332.19;;;17.40
76381;BMP280;65202;52.520;10.528;2023-07-31T01:48:51;100331.50;;;17.53
76381;BMP280;65202;52.520;10.528;2023-07-31T01:51:18;100324.69;;;17.48
76381;BMP280;65202;52.520;10.528;2023-07-31T01:53:46;100329.81;;;17.52
76381;BMP280;65202;52.520;10.528;2023-07-31T01:56:13;100326.28;;;17.38
76381;BMP280;65202;52.520;10.528;2023-07-31T01:58:40;100322.13;;;17.42
76381;BMP280;65202;52.520;10.528;2023-07-31T02:01:07;100312.09;;;17.57
76381;BMP280;65202;52.520;10.528;2023-07-31T02:03:35;100312.97;;;17.57
76381;BMP280;65202;52.520;10.528;2023-07-31T02:06:02;100304.34;;;17.36
76381;BMP280;65202;52.520;10.528;2023-07-31T02:08:29;100298.44;;;17.38
76381;BMP280;65202;52.520;10.528;2023-07-31T02:10:56;100285.72;;;17.29
76381;BMP280;65202;52.520;10.528;2023-07-31T02:13:24;100277.28;;;17.30
76381;BMP280;65202;52.520;10.528;2023-07-31T02:15:51;100269.88;;;17.51
76381;BMP280;65202;52.520;10.528;2023-07-31T02:18:18;100274.09;;;17.49
76381;BMP280;65202;52.520;10.528;2023-07-31T02:20:52;100278.78;;;17.16
76381;BMP280;65202;52.520;10.528;2023-07-31T02:23:19;100276.22;;;17.12
76381;BMP280;65202;52.520;10.528;2023-07-31T02:25:47;100269.81;;;17.44
76381;BMP280;65202;52.520;10.528;2023-07-31T02:28:14;100266.19;;;17.19
76381;BMP280;65202;52.520;10.528;2023-07-31T02:30:44;100266.38;;;17.36
76381;BMP280;65202;52.520;10.528;2023-07-31T02:33:15;100262.69;;;17.07
76381;BMP280;65202;52.520;10.528;2023-07-31T02:35:43;100252.56;;;17.08
76381;BMP280;65202;52.520;10.528;2023-07-31T02:38:10;100264.59;;;17.26
76381;BMP280;65202;52.520;10.528;2023-07-31T02:40:39;100272.13;;;17.24
76381;BMP280;65202;52.520;10.528;2023-07-31T02:43:08;100276.41;;;17.27
76381;BMP280;65202;52.520;10.528;2023-07-31T02:45:36;100275.50;;;17.22
76381;BMP280;65202;52.520;10.528;2023-07-31T02:48:03;100283.19;;;17.31
76381;BMP280;65202;52.520;10.528;2023-07-31T02:50:32;100277.25;;;17.27
76381;BMP280;65202;52.520;10.528;2023-07-31T02:53:00;100270.53;;;17.29
76381;BMP280;65202;52.520;10.528;2023-07-31T02:55:27;100262.97;;;17.35
76381;BMP280;65202;52.520;10.528;2023-07-31T02:57:54;100262.13;;;17.33
76381;BMP280;65202;52.520;10.528;2023-07-31T03:00:22;100268.03;;;17.31
76381;BMP280;65202;52.520;10.528;2023-07-31T03:02:49;100258.72;;;17.31
76381;BMP280;65202;52.520;10.528;2023-07-31T03:05:16;100264.59;;;17.26
76381;BMP280;65202;52.520;10.528;2023-07-31T03:07:43;100261.06;;;17.13
76381;BMP280;65202;52.520;10.528;2023-07-31T03:10:11;100263.69;;;17.24
76381;BMP280;65202;52.520;10.528;2023-07-31T03:12:38;100265.44;;;17.26
76381;BMP280;65202;52.520;10.528;2023-07-31T03:15:05;100263.91;;;17.43
76381;BMP280;65202;52.520;10.528;2023-07-31T03:17:33;100258.78;;;17.37
76381;BMP280;65202;52.520;10.528;2023-07-31T03:20:01;100257.91;;;17.34
76381;BMP280;65202;52.520;10.528;2023-07-31T03:22:28;100259.53;;;17.27
76381;BMP280;65202;52.520;10.528;2023-07-31T03:24:55;100262.88;;;17.25
76381;BMP280;65202;52.520;10.528;2023-07-31T03:27:22;100263.78;;;17.31
76381;BMP280;65202;52.520;10.528;2023-07-31T03:29:49;100258.72;;;17.27
76381;BMP280;65202;52.520;10.528;2023-07-31T03:32:18;100259.41;;;17.17
76381;BMP280;65202;52.520;10.528;2023-07-31T03:34:45;100262.03;;;17.24
76381;BMP280;65202;52.520;10.528;2023-07-31T03:37:12;100265.38;;;17.23
76381;BMP280;65202;52.520;10.528;2023-07-31T03:39:40;100262.59;;;17.01
76381;BMP280;65202;52.520;10.528;2023-07-31T03:42:07;100262.66;;;17.05
76381;BMP280;65202;52.520;10.528;2023-07-31T03:44:34;100269.56;;;17.21
76381;BMP280;65202;52.520;10.528;2023-07-31T03:47:01;100267.81;;;17.16
76381;BMP280;65202;52.520;10.528;2023-07-31T03:49:29;100272.09;;;17.21
76381;BMP280;65202;52.520;10.528;2023-07-31T03:51:56;100257.91;;;17.35
76381;BMP280;65202;52.520;10.528;2023-07-31T03:54:24;100257.91;;;17.34
76381;BMP280;65202;52.520;10.528;2023-07-31T03:56:51;100267.22;;;17.36
76381;BMP280;65202;52.520;10.528;2023-07-31T03:59:18;100265.38;;;17.22
76381;BMP280;65202;52.520;10.528;2023-07-31T04:01:46;100265.97;;;17.02
76381;BMP280;65202;52.520;10.528;2023-07-31T04:04:13;100266.13;;;17.15
76381;BMP280;65202;52.520;10.528;2023-07-31T04:06:40;100261.78;;;17.01
76381;BMP280;65202;52.520;10.528;2023-07-31T04:09:07;100260.25;;;17.17
76381;BMP280;65202;52.520;10.528;2023-07-31T04:11:35;100262.75;;;17.14
76381;BMP280;65202;52.520;10.528;2023-07-31T04:14:02;100262.06;;;17.27
76381;BMP280;65202;52.520;10.528;2023-07-31T04:16:29;100263.56;;;17.10
76381;BMP280;65202;52.520;10.528;2023-07-31T04:18:57;100251.94;;;17.27
76381;BMP280;65202;52.520;10.528;2023-07-31T04:21:24;100251.94;;;17.27
76381;BMP280;65202;52.520;10.528;2023-07-31T04:23:51;100257.56;;;17.02
76381;BMP280;65202;52.520;10.528;2023-07-31T04:26:22;100251.69;;;17.06
76381;BMP280;65202;52.520;10.528;2023-07-31T04:28:49;100250.03;;;17.08
76381;BMP280;65202;52.520;10.528;2023-07-31T04:31:17;100249.22;;;17.09
76381;BMP280;65202;52.520;10.528;2023-07-31T04:33:44;100238.31;;;17.16
76381;BMP280;65202;52.520;10.528;2023-07-31T04:36:11;100248.50;;;17.22
76381;BMP280;65202;52.520;10.528;2023-07-31T04:38:39;100238.38;;;17.21
76381;BMP280;65202;52.520;10.528;2023-07-31T04:41:08;100237.25;;;16.94
76381;BMP280;65202;52.520;10.528;2023-07-31T04:43:35;100244.28;;;17.23
76381;BMP280;65202;52.520;10.528;2023-07-31T04:46:02;100242.47;;;17.08
76381;BMP280;65202;52.520;10.528;2023-07-31T04:48:29;100239.25;;;17.24
76381;BMP280;65202;52.520;10.528;2023-07-31T04:50:57;100243.50;;;17.25
76381;BMP280;65202;52.520;10.528;2023-07-31T04:53:24;100234.72;;;16.94
76381;BMP280;65202;52.520;10.528;2023-07-31T04:55:51;100233.38;;;17.25
76381;BMP280;65202;52.520;10.528;2023-07-31T04:58:18;100230.75;;;17.18
76381;BMP280;65202;52.520;10.528;2023-07-31T05:00:45;100231.38;;;16.99
76381;BMP280;65202;52.520;10.528;2023-07-31T05:03:13;100246.78;;;17.18
76381;BMP280;65202;52.520;10.528;2023-07-31T05:05:40;100229.19;;;17.26
76381;BMP280;65202;52.520;10.528;2023-07-31T05:08:07;100233.44;;;17.31
76381;BMP280;65202;52.520;10.528;2023-07-31T05:10:35;100235.94;;;17.27
76381;BMP280;65202;52.520;10.528;2023-07-31T05:13:02;100231.59;;;17.20
76381;BMP280;65202;52.520;10.528;2023-07-31T05:15:29;100229.75;;;17.02
76381;BMP280;65202;52.520;10.528;2023-07-31T05:17:56;100225.22;;;16.73
76381;BMP280;65202;52.520;10.528;2023-07-31T05:20:24;100223.31;;;16.56
76381;BMP280;65202;52.520;10.528;2023-07-31T05:22:51;100229.78;;;16.35
76381;BMP280;65202;52.520;10.528;2023-07-31T05:25:18;100221.97;;;16.83
76381;BMP280;65202;52.520;10.528;2023-07-31T05:27:45;100213.50;;;16.81
76381;BMP280;65202;52.520;10.528;2023-07-31T05:30:13;100213.31;;;16.63
76381;BMP280;65202;52.520;10.528;2023-07-31T05:32:40;100217.88;;;16.96
76381;BMP280;65202;52.520;10.528;2023-07-31T05:35:07;100216.44;;;17.18
76381;BMP280;65202;52.520;10.528;2023-07-31T05:37:35;100216.34;;;17.09
76381;BMP280;65202;52.520;10.528;2023-07-31T05:40:02;100217.72;;;16.81
76381;BMP280;65202;52.520;10.528;2023-07-31T05:42:29;100217.09;;;17.04
76381;BMP280;65202;52.520;10.528;2023-07-31T05:44:57;100209.56;;;17.08
76381;BMP280;65202;52.520;10.528;2023-07-31T05:47:24;100217.84;;;16.93
76381;BMP280;65202;52.520;10.528;2023-07-31T05:49:51;100217.97;;;16.32
76381;BMP280;65202;52.520;10.528;2023-07-31T05:52:19;100211.69;;;16.71
76381;BMP280;65202;52.520;10.528;2023-07-31T05:54:46;100212.66;;;16.81
76381;BMP280;65202;52.520;10.528;2023-07-31T05:57:14;100202.78;;;16.29
76381;BMP280;65202;52.520;10.528;2023-07-31T05:59:41;100205.19;;;16.94
76381;BMP280;65202;52.520;10.528;2023-07-31T06:02:08;100202.72;;;16.96
76381;BMP280;65202;52.520;10.528;2023-07-31T06:04:35;100207.81;;;17.02
76381;BMP280;65202;52.520;10.528;2023-07-31T06:07:03;100203.00;;;16.47
76381;BMP280;65202;52.520;10.528;2023-07-31T06:09:30;100197.44;;;16.76
76381;BMP280;65202;52.520;10.528;2023-07-31T06:11:58;100196.69;;;16.83
76381;BMP280;65202;52.520;10.528;2023-07-31T06:14:25;100186.66;;;16.94
76381;BMP280;65202;52.520;10.528;2023-07-31T06:16:52;100190.88;;;16.92
76381;BMP280;65202;52.520;10.528;2023-07-31T06:19:20;100188.47;;;17.05
76381;BMP280;65202;52.520;10.528;2023-07-31T06:21:47;100195.22;;;17.04
76381;BMP280;65202;52.520;10.528;2023-07-31T06:24:14;100184.94;;;16.87
76381;BMP280;65202;52.520;10.528;2023-07-31T06:26:46;100189.75;;;16.64
76381;BMP280;65202;52.520;10.528;2023-07-31T06:29:13;100190.16;;;17.03
76381;BMP280;65202;52.520;10.528;2023-07-31T06:31:40;100184.78;;;16.72
76381;BMP280;65202;52.520;10.528;2023-07-31T06:34:08;100182.59;;;17.09
76381;BMP280;65202;52.520;10.528;2023-07-31T06:36:35;100185.50;;;16.62
76381;BMP280;65202;52.520;10.528;2023-07-31T06:39:03;100184.13;;;16.94
76381;BMP280;65202;52.520;10.528;2023-07-31T06:41:30;100178.09;;;16.77
76381;BMP280;65202;52.520;10.528;2023-07-31T06:43:58;100180.00;;;17.02
76381;BMP280;65202;52.520;10.528;2023-07-31T06:46:25;100175.81;;;17.03
76381;BMP280;65202;52.520;10.528;2023-07-31T06:48:52;100171.59;;;17.04
76381;BMP280;65202;52.520;10.528;2023-07-31T06:51:19;100174.91;;;16.97
76381;BMP280;65202;52.520;10.528;2023-07-31T06:53:47;100167.28;;;16.93
76381;BMP280;65202;52.520;10.528;2023-07-31T06:56:14;100159.88;;;17.12
76381;BMP280;65202;52.520;10.528;2023-07-31T06:58:41;100158.16;;;17.09
76381;BMP280;65202;52.520;10.528;2023-07-31T07:01:08;100161.53;;;17.07
76381;BMP280;65202;52.520;10.528;2023-07-31T07:03:36;100153.81;;;16.97
76381;BMP280;65202;52.520;10.528;2023-07-31T07:06:03;100148.00;;;17.03
76381;BMP280;65202;52.520;10.528;2023-07-31T07:08:30;100152.16;;;16.99
76381;BMP280;65202;52.520;10.528;2023-07-31T07:10:57;100151.44;;;17.11
76381;BMP280;65202;52.520;10.528;2023-07-31T07:13:25;100151.41;;;17.07
76381;BMP280;65202;52.520;10.528;2023-07-31T07:15:52;100157.25;;;17.02
76381;BMP280;65202;52.520;10.528;2023-07-31T07:18:19;100153.06;;;17.06
76381;BMP280;65202;52.520;10.528;2023-07-31T07:20:51;100160.53;;;16.92
76381;BMP280;65202;52.520;10.528;2023-07-31T07:23:20;100159.00;;;17.11
76381;BMP280;65202;52.520;10.528;2023-07-31T07:25:47;100148.06;;;17.11
76381;BMP280;65202;52.520;10.528;2023-07-31T07:28:15;100153.00;;;16.99
76381;BMP280;65202;52.520;10.528;2023-07-31T07:30:42;100163.19;;;17.05
76381;BMP280;65202;52.520;10.528;2023-07-31T07:33:10;100170.69;;;16.98
76381;BMP280;65202;52.520;10.528;2023-07-31T07:35:37;100158.03;;;16.98
76381;BMP280;65202;52.520;10.528;2023-07-31T07:38:04;100174.13;;;17.04
76381;BMP280;65202;52.520;10.528;2023-07-31T07:40:32;100172.41;;;17.02
76381;BMP280;65202;52.520;10.528;2023-07-31T07:42:59;100165.75;;;17.09
76381;BMP280;65202;52.520;10.528;2023-07-31T07:45:27;100162.28;;;17.02
76381;BMP280;65202;52.520;10.528;2023-07-31T07:47:54;100156.47;;;17.08
76381;BMP280;65202;52.520;10.528;2023-07-31T07:50:22;100148.88;;;17.08
76381;BMP280;65202;52.520;10.528;2023-07-31T07:52:49;100153.19;;;17.21
76381;BMP280;65202;52.520;10.528;2023-07-31T07:55:16;100155.66;;;17.09
76381;BMP280;65202;52.520;10.528;2023-07-31T07:57:44;100163.16;;;17.03
76381;BMP280;65202;52.520;10.528;2023-07-31T08:00:13;100174.94;;;17.02
76381;BMP280;65202;52.520;10.528;2023-07-31T08:02:40;100169.13;;;17.08
76381;BMP280;65202;52.520;10.528;2023-07-31T08:05:08;100142.41;;;17.34
76381;BMP280;65202;52.520;10.528;2023-07-31T08:07:35;100142.50;;;17.49
76381;BMP280;65202;52.520;10.528;2023-07-31T08:10:03;100148.63;;;17.84
76381;BMP280;65202;52.520;10.528;2023-07-31T08:12:30;100155.28;;;17.71
76381;BMP280;65202;52.520;10.528;2023-07-31T08:14:57;100162.97;;;17.86
76381;BMP280;65202;52.520;10.528;2023-07-31T08:17:26;100159.69;;;18.01
76381;BMP280;65202;52.520;10.528;2023-07-31T08:19:54;100164.78;;;18.01
76381;BMP280;65202;52.520;10.528;2023-07-31T08:22:22;100151.19;;;17.93
76381;BMP280;65202;52.520;10.528;2023-07-31T08:24:49;100163.91;;;17.94
76381;BMP280;65202;52.520;10.528;2023-07-31T08:27:16;100158.00;;;18.01
76381;BMP280;65202;52.520;10.528;2023-07-31T08:29:43;100152.84;;;17.88
76381;BMP280;65202;52.520;10.528;2023-07-31T08:32:11;100153.00;;;18.13
76381;BMP280;65202;52.520;10.528;2023-07-31T08:34:38;100155.53;;;18.15
76381;BMP280;65202;52.520;10.528;2023-07-31T08:37:05;100155.59;;;18.18
76381;BMP280;65202;52.520;10.528;2023-07-31T08:39:32;100165.66;;;18.10
76381;BMP280;65202;52.520;10.528;2023-07-31T08:42:00;100167.34;;;18.14
76381;BMP280;65202;52.520;10.528;2023-07-31T08:44:27;100165.63;;;18.06
76381;BMP280;65202;52.520;10.528;2023-07-31T08:46:57;100166.59;;;18.24
76381;BMP280;65202;52.520;10.528;2023-07-31T08:49:25;100171.72;;;18.33
76381;BMP280;65202;52.520;10.528;2023-07-31T08:51:53;100155.69;;;18.38
76381;BMP280;65202;52.520;10.528;2023-07-31T08:54:22;100159.06;;;18.34
76381;BMP280;65202;52.520;10.528;2023-07-31T08:56:50;100155.69;;;18.37
76381;BMP280;65202;52.520;10.528;2023-07-31T08:59:21;100156.47;;;18.32
76381;BMP280;65202;52.520;10.528;2023-07-31T09:01:50;100153.91;;;18.21
76381;BMP280;65202;52.520;10.528;2023-07-31T09:04:22;100146.31;;;18.24
76381;BMP280;65202;52.520;10.528;2023-07-31T09:06:54;100142.94;;;18.21
76381;BMP280;65202;52.520;10.528;2023-07-31T09:09:26;100143.97;;;18.95
76381;BMP280;65202;52.520;10.528;2023-07-31T09:11:54;100131.22;;;20.04
76381;BMP280;65202;52.520;10.528;2023-07-31T09:14:24;100123.41;;;20.47
76381;BMP280;65202;52.520;10.528;2023-07-31T09:16:57;100131.03;;;20.49
76381;BMP280;65202;52.520;10.528;2023-07-31T09:19:29;100121.09;;;19.95
76381;BMP280;65202;52.520;10.528;2023-07-31T09:22:01;100118.53;;;20.01
76381;BMP280;65202;52.520;10.528;2023-07-31T09:24:31;100117.75;;;19.59
76381;BMP280;65202;52.520;10.528;2023-07-31T09:27:00;100114.38;;;19.47
76381;BMP280;65202;52.520;10.528;2023-07-31T09:29:29;100117.75;;;19.71
76381;BMP280;65202;52.520;10.528;2023-07-31T09:31:57;100119.31;;;20.15
76381;BMP280;65202;52.520;10.528;2023-07-31T09:34:43;100094.22;;;21.05
76381;BMP280;65202;52.520;10.528;2023-07-31T09:37:11;100095.91;;;21.07
76381;BMP280;65202;52.520;10.528;2023-07-31T09:39:48;100098.56;;;20.91
76381;BMP280;65202;52.520;10.528;2023-07-31T09:42:24;100106.47;;;20.46
76381;BMP280;65202;52.520;10.528;2023-07-31T09:44:53;100108.16;;;20.43
76381;BMP280;65202;52.520;10.528;2023-07-31T09:47:23;100097.41;;;19.93
76381;BMP280;65202;52.520;10.528;2023-07-31T09:49:52;100110.16;;;19.56
76381;BMP280;65202;52.520;10.528;2023-07-31T09:52:19;100105.94;;;19.42
76381;BMP280;65202;52.520;10.528;2023-07-31T09:54:46;100112.72;;;19.46
76381;BMP280;65202;52.520;10.528;2023-07-31T09:57:16;100100.03;;;19.43
76381;BMP280;65202;52.520;10.528;2023-07-31T09:59:46;100102.59;;;19.26
76381;BMP280;65202;52.520;10.528;2023-07-31T10:02:21;100110.16;;;18.96
76381;BMP280;65202;52.520;10.528;2023-07-31T10:04:50;100100.91;;;19.15
76381;BMP280;65202;52.520;10.528;2023-07-31T10:07:18;100106.84;;;19.17
76381;BMP280;65202;52.520;10.528;2023-07-31T10:09:48;100102.59;;;19.16
76381;BMP280;65202;52.520;10.528;2023-07-31T10:12:18;100110.13;;;18.82
76381;BMP280;65202;52.520;10.528;2023-07-31T10:14:48;100098.28;;;18.70
76381;BMP280;65202;52.520;10.528;2023-07-31T10:17:16;100104.25;;;18.99
76381;BMP280;65202;52.520;10.528;2023-07-31T10:19:45;100099.13;;;18.60
76381;BMP280;65202;52.520;10.528;2023-07-31T10:22:14;100106.75;;;18.84
76381;BMP280;65202;52.520;10.528;2023-07-31T10:24:42;100108.44;;;18.58
76381;BMP280;65202;52.520;10.528;2023-07-31T10:27:10;100110.09;;;18.56
76381;BMP280;65202;52.520;10.528;2023-07-31T10:29:38;100111.00;;;18.73
76381;BMP280;65202;52.520;10.528;2023-07-31T10:32:09;100105.00;;;18.47
76381;BMP280;65202;52.520;10.528;2023-07-31T10:34:39;100114.28;;;18.45
76381;BMP280;65202;52.520;10.528;2023-07-31T10:37:28;100098.28;;;18.72
76381;BMP280;65202;52.520;10.528;2023-07-31T10:40:00;100103.38;;;18.75
76381;BMP280;65202;52.520;10.528;2023-07-31T10:42:37;100091.50;;;18.51
76381;BMP280;65202;52.520;10.528;2023-07-31T10:45:11;100096.59;;;18.47
76381;BMP280;65202;52.520;10.528;2023-07-31T10:47:42;100083.06;;;18.64
76381;BMP280;65202;52.520;10.528;2023-07-31T10:50:22;100070.44;;;18.73
76381;BMP280;65202;52.520;10.528;2023-07-31T10:52:52;100076.34;;;18.62
76381;BMP280;65202;52.520;10.528;2023-07-31T10:55:31;100067.88;;;18.76
76381;BMP280;65202;52.520;10.528;2023-07-31T11:00:41;100072.13;;;18.92
76381;BMP280;65202;52.520;10.528;2023-07-31T11:08:28;100060.28;;;18.98
76381;BMP280;65202;52.520;10.528;2023-07-31T11:13:39;100056.94;;;19.07
76381;BMP280;65202;52.520;10.528;2023-07-31T11:16:06;100048.41;;;19.32
76381;BMP280;65202;52.520;10.528;2023-07-31T11:18:34;100036.59;;;19.34
76381;BMP280;65202;52.520;10.528;2023-07-31T11:21:01;100039.13;;;19.46
76381;BMP280;65202;52.520;10.528;2023-07-31T11:23:30;100039.13;;;19.38
76381;BMP280;65202;52.520;10.528;2023-07-31T11:26:00;100033.16;;;19.47
76381;BMP280;65202;52.520;10.528;2023-07-31T11:28:32;100033.09;;;19.63
76381;BMP280;65202;52.520;10.528;2023-07-31T11:31:04;100023.06;;;19.35
76381;BMP280;65202;52.520;10.528;2023-07-31T11:33:31;100026.41;;;19.41
76381;BMP280;65202;52.520;10.528;2023-07-31T11:35:59;100017.91;;;19.53
76381;BMP280;65202;52.520;10.528;2023-07-31T11:38:29;100018.75;;;19.59
76381;BMP280;65202;52.520;10.528;2023-07-31T11:41:03;100013.72;;;19.49
76381;BMP280;65202;52.520;10.528;2023-07-31T11:43:31;100023.00;;;19.53
76381;BMP280;65202;52.520;10.528;2023-07-31T11:46:00;100022.16;;;19.51
76381;BMP280;65202;52.520;10.528;2023-07-31T11:48:34;100001.03;;;19.41
76381;BMP280;65202;52.520;10.528;2023-07-31T11:51:08;100004.38;;;19.60
76381;BMP280;65202;52.520;10.528;2023-07-31T11:53:43;100005.25;;;19.51
76381;BMP280;65202;52.520;10.528;2023-07-31T11:56:14;100001.00;;;19.52
76381;BMP280;65202;52.520;10.528;2023-07-31T11:58:48;99995.09;;;19.47
76381;BMP280;65202;52.520;10.528;2023-07-31T12:01:19;99987.47;;;19.47
76381;BMP280;65202;52.520;10.528;2023-07-31T12:03:49;99992.50;;;19.56
76381;BMP280;65202;52.520;10.528;2023-07-31T12:06:18;99986.63;;;19.49
76381;BMP280;65202;52.520;10.528;2023-07-31T12:08:48;99986.63;;;19.49
76381;BMP280;65202;52.520;10.528;2023-07-31T12:11:16;99995.91;;;19.52
76381;BMP280;65202;52.520;10.528;2023-07-31T12:13:45;99994.22;;;19.51
76381;BMP280;65202;52.520;10.528;2023-07-31T12:16:12;99994.25;;;19.45
76381;BMP280;65202;52.520;10.528;2023-07-31T12:18:40;99984.09;;;19.48
76381;BMP280;65202;52.520;10.528;2023-07-31T12:21:08;99987.47;;;19.47
76381;BMP280;65202;52.520;10.528;2023-07-31T12:23:38;99991.72;;;19.46
76381;BMP280;65202;52.520;10.528;2023-07-31T12:26:14;99981.53;;;19.55
76381;BMP280;65202;52.520;10.528;2023-07-31T12:28:44;99986.59;;;19.60
76381;BMP280;65202;52.520;10.528;2023-07-31T12:33:41;99982.31;;;19.67
76381;BMP280;65202;52.520;10.528;2023-07-31T12:36:11;99980.66;;;19.63
76381;BMP280;65202;52.520;10.528;2023-07-31T12:38:44;99986.56;;;19.58
76381;BMP280;65202;52.520;10.528;2023-07-31T12:41:12;99979.09;;;19.30
76381;BMP280;65202;52.520;10.528;2023-07-31T12:43:42;99979.09;;;19.30
76381;BMP280;65202;52.520;10.528;2023-07-31T12:46:10;99989.25;;;19.06
76381;BMP280;65202;52.520;10.528;2023-07-31T12:48:38;99980.81;;;19.16
76381;BMP280;65202;52.520;10.528;2023-07-31T12:51:07;99980.84;;;19.07
76381;BMP280;65202;52.520;10.528;2023-07-31T12:53:35;99974.88;;;19.15
76381;BMP280;65202;52.520;10.528;2023-07-31T12:56:02;99974.88;;;19.03
76381;BMP280;65202;52.520;10.528;2023-07-31T12:58:30;99974.91;;;19.06
76381;BMP280;65202;52.520;10.528;2023-07-31T13:00:57;99970.69;;;19.07
76381;BMP280;65202;52.520;10.528;2023-07-31T13:03:25;99964.72;;;19.15
76381;BMP280;65202;52.520;10.528;2023-07-31T13:05:52;99972.34;;;19.20
76381;BMP280;65202;52.520;10.528;2023-07-31T13:08:21;99967.25;;;19.26
76381;BMP280;65202;52.520;10.528;2023-07-31T13:10:48;99957.94;;;19.25
76381;BMP280;65202;52.520;10.528;2023-07-31T13:13:16;99962.16;;;19.33
76381;BMP280;65202;52.520;10.528;2023-07-31T13:15:43;99973.97;;;19.37
76381;BMP280;65202;52.520;10.528;2023-07-31T13:18:11;99971.50;;;19.16
76381;BMP280;65202;52.520;10.528;2023-07-31T13:20:38;99972.34;;;19.00
76381;BMP280;65202;52.520;10.528;2023-07-31T13:23:05;99961.31;;;19.31
76381;BMP280;65202;52.520;10.528;2023-07-31T13:25:32;99958.78;;;19.30
76381;BMP280;65202;52.520;10.528;2023-07-31T13:28:00;99957.13;;;19.14
76381;BMP280;65202;52.520;10.528;2023-07-31T13:30:29;99958.00;;;19.08
76381;BMP280;65202;52.520;10.528;2023-07-31T13:32:57;99948.63;;;19.27
76381;BMP280;65202;52.520;10.528;2023-07-31T13:35:24;99948.66;;;19.06
76381;BMP280;65202;52.520;10.528;2023-07-31T13:37:51;99960.50;;;19.11
76381;BMP280;65202;52.520;10.528;2023-07-31T13:40:18;99947.84;;;19.10
76381;BMP280;65202;52.520;10.528;2023-07-31T13:42:46;99954.59;;;18.99
76381;BMP280;65202;52.520;10.528;2023-07-31T13:45:14;99947.84;;;19.08
76381;BMP280;65202;52.520;10.528;2023-07-31T13:47:42;99952.06;;;19.11
76381;BMP280;65202;52.520;10.528;2023-07-31T13:50:09;99952.03;;;19.20
76381;BMP280;65202;52.520;10.528;2023-07-31T13:52:36;99952.94;;;19.07
76381;BMP280;65202;52.520;10.528;2023-07-31T13:55:04;99952.06;;;19.11
76381;BMP280;65202;52.520;10.528;2023-07-31T13:57:32;99956.25;;;19.18
76381;BMP280;65202;52.520;10.528;2023-07-31T13:59:59;99960.50;;;19.13
76381;BMP280;65202;52.520;10.528;2023-07-31T14:02:27;99946.97;;;19.08
76381;BMP280;65202;52.520;10.528;2023-07-31T14:04:54;99946.97;;;19.08
76381;BMP280;65202;52.520;10.528;2023-07-31T14:07:21;99953.75;;;19.12
76381;BMP280;65202;52.520;10.528;2023-07-31T14:09:48;99946.13;;;19.16